Atlantic Island — C4VM2 — position and weather

sailwx.info

Track history (hours):
 
Tides and Currents Weather Stations Pressure Air Temp Water Temp Dewpoint Dewpoint Depression Visibility Wind Speed Wind Dir Waves Ship Positions

Atlantic Island

Last reported at 2017-Dec-09 07:26 UTC. Time now 2017-Dec-14 10:02 UTC.
Position N 37°36' W 009°20'.

Length 95 m; draft 3.9 m.

Type: Cargo ship. MMSI: 210754000.

Date/timePositionNaut miles runAvg speedWind from/ knotsBaromVisibWave heightAir tempDewpointWater temp
2017-Dec-09 07:26N 37°36' W 009°20'6 9.8
2017-Dec-09 06:47N 37°42' W 009°18'310.0
2017-Dec-09 06:31N 37°45' W 009°17'510.0
2017-Dec-09 06:00N 37°49' W 009°14'5 9.9
2017-Dec-09 05:31N 37°54' W 009°12'5 9.8
2017-Dec-09 05:01N 37°59' W 009°11'5 9.5
2017-Dec-09 04:30N 38°03' W 009°09'5 9.4
2017-Dec-09 04:01N 38°08' W 009°07'5 9.5
2017-Dec-09 03:31N 38°12' W 009°05'5 9.6
2017-Dec-09 03:01N 38°17' W 009°03'5 9.7
2017-Dec-09 02:31N 38°21' W 009°01'5 9.7
2017-Dec-09 02:01N 38°26' W 008°59'4 9.0
2017-Dec-09 01:31N 38°29' W 008°56'3 4.6
2017-Dec-09 00:52N 38°31' W 008°52'0 0.0
2017-Dec-08 21:38N 38°31' W 008°52'0 0.0
2017-Dec-08 19:59N 38°31' W 008°52'0 0.0
2017-Dec-08 19:17N 38°31' W 008°52'0 0.0
2017-Dec-08 18:53N 38°31' W 008°52'0 0.0
2017-Dec-08 18:11N 38°31' W 008°52'0 0.0
2017-Dec-08 17:56N 38°31' W 008°52'0 0.0
2017-Dec-08 11:17N 38°31' W 008°52'0 0.0
2017-Dec-08 10:59N 38°31' W 008°52'0 0.0
2017-Dec-08 10:17N 38°31' W 008°52'0 0.0
2017-Dec-08 09:04N 38°31' W 008°52'0 0.0
2017-Dec-08 08:40N 38°31' W 008°52'0 0.0
2017-Dec-08 08:28N 38°31' W 008°52'0 0.0
2017-Dec-08 07:58N 38°31' W 008°52'0 0.0
2017-Dec-08 07:28N 38°31' W 008°52'0 0.0
2017-Dec-08 06:58N 38°31' W 008°52'0 0.0
2017-Dec-08 06:19N 38°31' W 008°52'0 0.0
2017-Dec-08 05:52N 38°31' W 008°52'0 0.0
2017-Dec-08 05:28N 38°31' W 008°52'0 0.0
2017-Dec-08 04:46N 38°31' W 008°52'0 0.0
2017-Dec-08 03:22N 38°31' W 008°52'0 0.0
2017-Dec-08 02:58N 38°31' W 008°52'0 0.0
2017-Dec-08 02:25N 38°31' W 008°52'0 0.0
2017-Dec-08 00:43N 38°31' W 008°52'0 0.0
2017-Dec-08 00:16N 38°31' W 008°52'0 0.0
2017-Dec-07 23:58N 38°31' W 008°52'0 0.0
2017-Dec-07 23:10N 38°31' W 008°52'0 0.0
2017-Dec-07 22:55N 38°31' W 008°52'0 0.0
2017-Dec-07 22:25N 38°31' W 008°52'1 1.5
2017-Dec-07 22:00N 38°31' W 008°53'0 0.0
2017-Dec-07 21:25N 38°31' W 008°53'0 0.0
2017-Dec-07 20:49N 38°31' W 008°53'0 0.0
2017-Dec-07 20:22N 38°31' W 008°53'0 0.0
2017-Dec-07 19:55N 38°31' W 008°53'0 0.0
2017-Dec-07 19:22N 38°31' W 008°53'0 0.0
2017-Dec-07 18:22N 38°31' W 008°53'0 0.0
2017-Dec-07 17:49N 38°31' W 008°53'0 0.0
2017-Dec-07 17:19N 38°31' W 008°53'0 0.0
2017-Dec-07 16:49N 38°31' W 008°53'0 0.0
2017-Dec-07 16:25N 38°31' W 008°53'0 0.0
2017-Dec-07 15:55N 38°31' W 008°53'0 0.0
2017-Dec-07 15:10N 38°31' W 008°53'0 0.0
2017-Dec-07 14:58N 38°31' W 008°53'0 0.0
2017-Dec-07 14:28N 38°31' W 008°53'0 0.0
2017-Dec-07 13:58N 38°31' W 008°53'0 0.0
2017-Dec-07 13:28N 38°31' W 008°53'0 0.0
2017-Dec-07 12:58N 38°31' W 008°53'0 0.0
2017-Dec-07 12:28N 38°31' W 008°53'0 0.0
2017-Dec-07 11:58N 38°31' W 008°53'0 0.0
2017-Dec-07 11:28N 38°31' W 008°53'0 0.0
2017-Dec-07 10:58N 38°31' W 008°53'0 0.0
2017-Dec-07 10:28N 38°31' W 008°53'0 0.0
2017-Dec-07 09:55N 38°31' W 008°53'0 0.0
2017-Dec-07 09:28N 38°31' W 008°53'0 0.0
2017-Dec-07 08:55N 38°31' W 008°53'0 0.0
2017-Dec-07 08:25N 38°31' W 008°53'0 0.0
2017-Dec-07 07:58N 38°31' W 008°53'0 0.0
2017-Dec-07 07:28N 38°31' W 008°53'0 0.0
2017-Dec-07 06:55N 38°31' W 008°53'0 0.0
2017-Dec-07 06:25N 38°31' W 008°53'0 0.0
2017-Dec-07 05:58N 38°31' W 008°53'0 0.0
2017-Dec-07 05:31N 38°31' W 008°53'0 0.0
2017-Dec-07 04:58N 38°31' W 008°53'0 0.0
2017-Dec-07 04:30N 38°31' W 008°53'0 0.0
2017-Dec-07 03:57N 38°31' W 008°53'0 0.0
2017-Dec-07 03:30N 38°31' W 008°53'0 0.0
2017-Dec-07 03:00N 38°31' W 008°53'0 0.0
2017-Dec-07 02:30N 38°31' W 008°53'0 0.0
2017-Dec-07 02:00N 38°31' W 008°53'0 0.0
2017-Dec-07 01:30N 38°31' W 008°53'0 0.0
2017-Dec-07 01:00N 38°31' W 008°53'0 0.0
2017-Dec-07 00:30N 38°31' W 008°53'0 0.0
2017-Dec-06 23:57N 38°31' W 008°53'0 0.0
2017-Dec-06 23:30N 38°31' W 008°53'0 0.0
2017-Dec-06 22:54N 38°31' W 008°53'0 0.0
2017-Dec-06 22:30N 38°31' W 008°53'0 0.0
2017-Dec-06 22:00N 38°31' W 008°53'0 0.0
2017-Dec-06 21:24N 38°31' W 008°53'0 0.0
2017-Dec-06 21:00N 38°31' W 008°53'  
Track history (hours):
 
Tides and Currents Weather Stations Pressure Air Temp Water Temp Dewpoint Dewpoint Depression Visibility Wind Speed Wind Dir Waves Ship Positions

Atlantic Island

Last reported at 2017-Dec-09 07:26 UTC. Time now 2017-Dec-14 10:02 UTC.
Position N 37°36' W 009°20'.

Length 95 m; draft 3.9 m.

Type: Cargo ship. MMSI: 210754000.

Date/timePositionNaut miles runAvg speedWind from/ knotsBaromVisibWave heightAir tempDewpointWater temp
2017-Dec-09 07:26N 37°36' W 009°20'6 9.8
2017-Dec-09 06:47N 37°42' W 009°18'310.0
2017-Dec-09 06:31N 37°45' W 009°17'510.0
2017-Dec-09 06:00N 37°49' W 009°14'5 9.9
2017-Dec-09 05:31N 37°54' W 009°12'5 9.8
2017-Dec-09 05:01N 37°59' W 009°11'5 9.5
2017-Dec-09 04:30N 38°03' W 009°09'5 9.4
2017-Dec-09 04:01N 38°08' W 009°07'5 9.5
2017-Dec-09 03:31N 38°12' W 009°05'5 9.6
2017-Dec-09 03:01N 38°17' W 009°03'5 9.7
2017-Dec-09 02:31N 38°21' W 009°01'5 9.7
2017-Dec-09 02:01N 38°26' W 008°59'4 9.0
2017-Dec-09 01:31N 38°29' W 008°56'3 4.6
2017-Dec-09 00:52N 38°31' W 008°52'0 0.0
2017-Dec-08 21:38N 38°31' W 008°52'0 0.0
2017-Dec-08 19:59N 38°31' W 008°52'0 0.0
2017-Dec-08 19:17N 38°31' W 008°52'0 0.0
2017-Dec-08 18:53N 38°31' W 008°52'0 0.0
2017-Dec-08 18:11N 38°31' W 008°52'0 0.0
2017-Dec-08 17:56N 38°31' W 008°52'0 0.0
2017-Dec-08 11:17N 38°31' W 008°52'0 0.0
2017-Dec-08 10:59N 38°31' W 008°52'0 0.0
2017-Dec-08 10:17N 38°31' W 008°52'0 0.0
2017-Dec-08 09:04N 38°31' W 008°52'0 0.0
2017-Dec-08 08:40N 38°31' W 008°52'0 0.0
2017-Dec-08 08:28N 38°31' W 008°52'0 0.0
2017-Dec-08 07:58N 38°31' W 008°52'0 0.0
2017-Dec-08 07:28N 38°31' W 008°52'0 0.0
2017-Dec-08 06:58N 38°31' W 008°52'0 0.0
2017-Dec-08 06:19N 38°31' W 008°52'0 0.0
2017-Dec-08 05:52N 38°31' W 008°52'0 0.0
2017-Dec-08 05:28N 38°31' W 008°52'0 0.0
2017-Dec-08 04:46N 38°31' W 008°52'0 0.0
2017-Dec-08 03:22N 38°31' W 008°52'0 0.0
2017-Dec-08 02:58N 38°31' W 008°52'0 0.0
2017-Dec-08 02:25N 38°31' W 008°52'0 0.0
2017-Dec-08 00:43N 38°31' W 008°52'0 0.0
2017-Dec-08 00:16N 38°31' W 008°52'0 0.0
2017-Dec-07 23:58N 38°31' W 008°52'0 0.0
2017-Dec-07 23:10N 38°31' W 008°52'0 0.0
2017-Dec-07 22:55N 38°31' W 008°52'0 0.0
2017-Dec-07 22:25N 38°31' W 008°52'1 1.5
2017-Dec-07 22:00N 38°31' W 008°53'0 0.0
2017-Dec-07 21:25N 38°31' W 008°53'0 0.0
2017-Dec-07 20:49N 38°31' W 008°53'0 0.0
2017-Dec-07 20:22N 38°31' W 008°53'0 0.0
2017-Dec-07 19:55N 38°31' W 008°53'0 0.0
2017-Dec-07 19:22N 38°31' W 008°53'0 0.0
2017-Dec-07 18:22N 38°31' W 008°53'0 0.0
2017-Dec-07 17:49N 38°31' W 008°53'0 0.0
2017-Dec-07 17:19N 38°31' W 008°53'0 0.0
2017-Dec-07 16:49N 38°31' W 008°53'0 0.0
2017-Dec-07 16:25N 38°31' W 008°53'0 0.0
2017-Dec-07 15:55N 38°31' W 008°53'0 0.0
2017-Dec-07 15:10N 38°31' W 008°53'0 0.0
2017-Dec-07 14:58N 38°31' W 008°53'0 0.0
2017-Dec-07 14:28N 38°31' W 008°53'0 0.0
2017-Dec-07 13:58N 38°31' W 008°53'0 0.0
2017-Dec-07 13:28N 38°31' W 008°53'0 0.0
2017-Dec-07 12:58N 38°31' W 008°53'0 0.0
2017-Dec-07 12:28N 38°31' W 008°53'0 0.0
2017-Dec-07 11:58N 38°31' W 008°53'0 0.0
2017-Dec-07 11:28N 38°31' W 008°53'0 0.0
2017-Dec-07 10:58N 38°31' W 008°53'0 0.0
2017-Dec-07 10:28N 38°31' W 008°53'0 0.0
2017-Dec-07 09:55N 38°31' W 008°53'0 0.0
2017-Dec-07 09:28N 38°31' W 008°53'0 0.0
2017-Dec-07 08:55N 38°31' W 008°53'0 0.0
2017-Dec-07 08:25N 38°31' W 008°53'0 0.0
2017-Dec-07 07:58N 38°31' W 008°53'0 0.0
2017-Dec-07 07:28N 38°31' W 008°53'0 0.0
2017-Dec-07 06:55N 38°31' W 008°53'0 0.0
2017-Dec-07 06:25N 38°31' W 008°53'0 0.0
2017-Dec-07 05:58N 38°31' W 008°53'0 0.0
2017-Dec-07 05:31N 38°31' W 008°53'0 0.0
2017-Dec-07 04:58N 38°31' W 008°53'0 0.0
2017-Dec-07 04:30N 38°31' W 008°53'0 0.0
2017-Dec-07 03:57N 38°31' W 008°53'0 0.0
2017-Dec-07 03:30N 38°31' W 008°53'0 0.0
2017-Dec-07 03:00N 38°31' W 008°53'0 0.0
2017-Dec-07 02:30N 38°31' W 008°53'0 0.0
2017-Dec-07 02:00N 38°31' W 008°53'0 0.0
2017-Dec-07 01:30N 38°31' W 008°53'0 0.0
2017-Dec-07 01:00N 38°31' W 008°53'0 0.0
2017-Dec-07 00:30N 38°31' W 008°53'0 0.0
2017-Dec-06 23:57N 38°31' W 008°53'0 0.0
2017-Dec-06 23:30N 38°31' W 008°53'0 0.0
2017-Dec-06 22:54N 38°31' W 008°53'0 0.0
2017-Dec-06 22:30N 38°31' W 008°53'0 0.0
2017-Dec-06 22:00N 38°31' W 008°53'0 0.0
2017-Dec-06 21:24N 38°31' W 008°53'0 0.0
2017-Dec-06 21:00N 38°31' W 008°53'  

Dump ship's entire track history